sensor_id;sensor_type;location;lat;lon;timestamp;temperature;humidity
29185;DHT22;16233;47.964;-3.842;2022-11-15T00:01:56;12.60;99.90
29185;DHT22;16233;47.964;-3.842;2022-11-15T00:03:57;12.60;99.90
29185;DHT22;16233;47.964;-3.842;2022-11-15T00:06:02;12.60;99.90
29185;DHT22;16233;47.964;-3.842;2022-11-15T00:08:03;12.60;99.90
29185;DHT22;16233;47.964;-3.842;2022-11-15T00:10:05;12.60;99.90
29185;DHT22;16233;47.964;-3.842;2022-11-15T00:12:06;12.60;99.90
29185;DHT22;16233;47.964;-3.842;2022-11-15T00:14:07;12.70;99.90
29185;DHT22;16233;47.964;-3.842;2022-11-15T00:16:09;12.60;99.90
29185;DHT22;16233;47.964;-3.842;2022-11-15T00:18:13;12.60;99.90
29185;DHT22;16233;47.964;-3.842;2022-11-15T00:20:15;12.60;99.90
29185;DHT22;16233;47.964;-3.842;2022-11-15T00:22:16;12.60;99.90
29185;DHT22;16233;47.964;-3.842;2022-11-15T00:24:17;12.60;99.90
29185;DHT22;16233;47.964;-3.842;2022-11-15T00:26:18;12.60;99.90
29185;DHT22;16233;47.964;-3.842;2022-11-15T00:28:19;12.60;99.90
29185;DHT22;16233;47.964;-3.842;2022-11-15T00:30:20;12.60;99.90
29185;DHT22;16233;47.964;-3.842;2022-11-15T00:32:21;12.60;99.90
29185;DHT22;16233;47.964;-3.842;2022-11-15T00:34:23;12.60;99.90
29185;DHT22;16233;47.964;-3.842;2022-11-15T00:36:24;12.60;99.90
29185;DHT22;16233;47.964;-3.842;2022-11-15T00:38:25;12.60;99.90
29185;DHT22;16233;47.964;-3.842;2022-11-15T00:40:26;12.70;99.90
29185;DHT22;16233;47.964;-3.842;2022-11-15T00:42:27;12.70;99.90
29185;DHT22;16233;47.964;-3.842;2022-11-15T00:44:28;12.60;99.90
29185;DHT22;16233;47.964;-3.842;2022-11-15T00:46:29;12.70;99.90
29185;DHT22;16233;47.964;-3.842;2022-11-15T00:48:30;12.70;99.90
29185;DHT22;16233;47.964;-3.842;2022-11-15T00:50:33;12.70;99.90
29185;DHT22;16233;47.964;-3.842;2022-11-15T00:52:34;12.70;99.90
29185;DHT22;16233;47.964;-3.842;2022-11-15T00:54:35;12.70;99.90
29185;DHT22;16233;47.964;-3.842;2022-11-15T00:56:36;12.70;99.90
29185;DHT22;16233;47.964;-3.842;2022-11-15T00:58:37;12.70;99.90
29185;DHT22;16233;47.964;-3.842;2022-11-15T01:00:38;12.70;99.90
29185;DHT22;16233;47.964;-3.842;2022-11-15T01:02:39;12.70;99.90
29185;DHT22;16233;47.964;-3.842;2022-11-15T01:04:40;12.70;99.90
29185;DHT22;16233;47.964;-3.842;2022-11-15T01:06:42;12.80;99.90
29185;DHT22;16233;47.964;-3.842;2022-11-15T01:08:43;12.80;99.90
29185;DHT22;16233;47.964;-3.842;2022-11-15T01:10:44;12.80;99.90
29185;DHT22;16233;47.964;-3.842;2022-11-15T01:12:45;12.80;99.90
29185;DHT22;16233;47.964;-3.842;2022-11-15T01:14:46;12.70;99.90
29185;DHT22;16233;47.964;-3.842;2022-11-15T01:16:47;12.80;99.90
29185;DHT22;16233;47.964;-3.842;2022-11-15T01:18:48;12.80;99.90
29185;DHT22;16233;47.964;-3.842;2022-11-15T01:20:51;12.80;99.90
29185;DHT22;16233;47.964;-3.842;2022-11-15T01:22:54;12.80;99.90
29185;DHT22;16233;47.964;-3.842;2022-11-15T01:24:55;12.80;99.90
29185;DHT22;16233;47.964;-3.842;2022-11-15T01:26:56;12.70;99.90
29185;DHT22;16233;47.964;-3.842;2022-11-15T01:28:57;12.70;99.90
29185;DHT22;16233;47.964;-3.842;2022-11-15T01:30:58;12.70;99.90
29185;DHT22;16233;47.964;-3.842;2022-11-15T01:32:59;12.80;99.90
29185;DHT22;16233;47.964;-3.842;2022-11-15T01:35:00;12.70;99.90
29185;DHT22;16233;47.964;-3.842;2022-11-15T01:37:02;12.70;99.90
29185;DHT22;16233;47.964;-3.842;2022-11-15T01:39:04;12.70;99.90
29185;DHT22;16233;47.964;-3.842;2022-11-15T01:41:05;12.70;99.90
29185;DHT22;16233;47.964;-3.842;2022-11-15T01:43:20;12.70;99.90
29185;DHT22;16233;47.964;-3.842;2022-11-15T01:45:22;12.70;99.90
29185;DHT22;16233;47.964;-3.842;2022-11-15T01:47:25;12.70;99.90
29185;DHT22;16233;47.964;-3.842;2022-11-15T01:49:28;12.70;99.90
29185;DHT22;16233;47.964;-3.842;2022-11-15T01:51:32;12.60;99.90
29185;DHT22;16233;47.964;-3.842;2022-11-15T01:53:34;12.60;99.90
29185;DHT22;16233;47.964;-3.842;2022-11-15T01:55:38;12.70;99.90
29185;DHT22;16233;47.964;-3.842;2022-11-15T01:57:41;12.60;99.90
29185;DHT22;16233;47.964;-3.842;2022-11-15T01:59:44;12.60;99.90
29185;DHT22;16233;47.964;-3.842;2022-11-15T02:01:46;12.70;99.90
29185;DHT22;16233;47.964;-3.842;2022-11-15T02:03:52;12.70;99.90
29185;DHT22;16233;47.964;-3.842;2022-11-15T02:05:56;12.70;99.90
29185;DHT22;16233;47.964;-3.842;2022-11-15T02:07:57;12.70;99.90
29185;DHT22;16233;47.964;-3.842;2022-11-15T02:10:04;12.70;99.90
29185;DHT22;16233;47.964;-3.842;2022-11-15T02:12:10;12.70;99.90
29185;DHT22;16233;47.964;-3.842;2022-11-15T02:14:12;12.70;99.90
29185;DHT22;16233;47.964;-3.842;2022-11-15T02:16:16;12.70;99.90
29185;DHT22;16233;47.964;-3.842;2022-11-15T02:18:26;12.80;99.90
29185;DHT22;16233;47.964;-3.842;2022-11-15T02:20:41;12.80;99.90
29185;DHT22;16233;47.964;-3.842;2022-11-15T02:22:51;12.80;99.90
29185;DHT22;16233;47.964;-3.842;2022-11-15T02:25:10;12.80;99.90
29185;DHT22;16233;47.964;-3.842;2022-11-15T02:27:38;12.70;99.90
29185;DHT22;16233;47.964;-3.842;2022-11-15T02:32:33;12.80;99.90
29185;DHT22;16233;47.964;-3.842;2022-11-15T02:34:43;12.70;99.90
29185;DHT22;16233;47.964;-3.842;2022-11-15T02:37:01;12.80;99.90
29185;DHT22;16233;47.964;-3.842;2022-11-15T02:39:10;12.80;99.90
29185;DHT22;16233;47.964;-3.842;2022-11-15T02:41:14;12.70;99.90
29185;DHT22;16233;47.964;-3.842;2022-11-15T02:43:23;12.70;99.90
29185;DHT22;16233;47.964;-3.842;2022-11-15T02:45:28;12.80;99.90
29185;DHT22;16233;47.964;-3.842;2022-11-15T02:47:35;12.80;99.90
29185;DHT22;16233;47.964;-3.842;2022-11-15T02:49:40;12.80;99.90
29185;DHT22;16233;47.964;-3.842;2022-11-15T02:51:44;12.80;99.90
29185;DHT22;16233;47.964;-3.842;2022-11-15T02:53:45;12.80;99.90
29185;DHT22;16233;47.964;-3.842;2022-11-15T02:55:48;12.80;99.90
29185;DHT22;16233;47.964;-3.842;2022-11-15T02:57:52;12.80;99.90
29185;DHT22;16233;47.964;-3.842;2022-11-15T03:00:09;12.80;99.90
29185;DHT22;16233;47.964;-3.842;2022-11-15T03:02:23;12.80;99.90
29185;DHT22;16233;47.964;-3.842;2022-11-15T03:04:35;12.80;99.90
29185;DHT22;16233;47.964;-3.842;2022-11-15T03:06:42;12.80;99.90
29185;DHT22;16233;47.964;-3.842;2022-11-15T03:08:51;12.90;99.90
29185;DHT22;16233;47.964;-3.842;2022-11-15T03:11:03;12.90;99.90
29185;DHT22;16233;47.964;-3.842;2022-11-15T03:13:13;12.90;99.90
29185;DHT22;16233;47.964;-3.842;2022-11-15T03:15:20;12.90;99.90
29185;DHT22;16233;47.964;-3.842;2022-11-15T03:17:25;12.90;99.90
29185;DHT22;16233;47.964;-3.842;2022-11-15T03:19:32;13.00;99.90
29185;DHT22;16233;47.964;-3.842;2022-11-15T03:21:35;13.00;99.90
29185;DHT22;16233;47.964;-3.842;2022-11-15T03:23:40;13.00;99.90
29185;DHT22;16233;47.964;-3.842;2022-11-15T03:25:44;13.00;99.90
29185;DHT22;16233;47.964;-3.842;2022-11-15T03:27:49;13.00;99.90
29185;DHT22;16233;47.964;-3.842;2022-11-15T03:29:54;13.00;99.90
29185;DHT22;16233;47.964;-3.842;2022-11-15T03:34:01;13.00;99.90
29185;DHT22;16233;47.964;-3.842;2022-11-15T03:36:06;13.00;99.90
29185;DHT22;16233;47.964;-3.842;2022-11-15T03:38:14;13.00;99.90
29185;DHT22;16233;47.964;-3.842;2022-11-15T03:40:17;13.00;99.90
29185;DHT22;16233;47.964;-3.842;2022-11-15T03:42:22;13.00;99.90
29185;DHT22;16233;47.964;-3.842;2022-11-15T03:44:34;13.00;99.90
29185;DHT22;16233;47.964;-3.842;2022-11-15T03:46:40;13.00;99.90
29185;DHT22;16233;47.964;-3.842;2022-11-15T03:48:48;13.00;99.90
29185;DHT22;16233;47.964;-3.842;2022-11-15T03:50:50;13.00;99.90
29185;DHT22;16233;47.964;-3.842;2022-11-15T03:52:54;13.00;99.90
29185;DHT22;16233;47.964;-3.842;2022-11-15T03:54:57;13.00;99.90
29185;DHT22;16233;47.964;-3.842;2022-11-15T03:57:00;13.00;99.90
29185;DHT22;16233;47.964;-3.842;2022-11-15T03:59:01;13.00;99.90
29185;DHT22;16233;47.964;-3.842;2022-11-15T04:01:02;13.00;99.90
29185;DHT22;16233;47.964;-3.842;2022-11-15T04:03:03;12.90;99.90
29185;DHT22;16233;47.964;-3.842;2022-11-15T04:05:04;12.90;99.90
29185;DHT22;16233;47.964;-3.842;2022-11-15T04:07:06;12.90;99.90
29185;DHT22;16233;47.964;-3.842;2022-11-15T04:09:08;12.90;99.90
29185;DHT22;16233;47.964;-3.842;2022-11-15T04:11:09;13.00;99.90
29185;DHT22;16233;47.964;-3.842;2022-11-15T04:13:10;13.00;99.90
29185;DHT22;16233;47.964;-3.842;2022-11-15T04:15:12;12.90;99.90
29185;DHT22;16233;47.964;-3.842;2022-11-15T04:17:14;13.00;99.90
29185;DHT22;16233;47.964;-3.842;2022-11-15T04:19:15;13.00;99.90
29185;DHT22;16233;47.964;-3.842;2022-11-15T04:21:16;13.00;99.90
29185;DHT22;16233;47.964;-3.842;2022-11-15T04:23:18;13.00;99.90
29185;DHT22;16233;47.964;-3.842;2022-11-15T04:25:20;13.00;99.90
29185;DHT22;16233;47.964;-3.842;2022-11-15T04:27:21;13.00;99.90
29185;DHT22;16233;47.964;-3.842;2022-11-15T04:29:22;13.00;99.90
29185;DHT22;16233;47.964;-3.842;2022-11-15T04:31:23;13.10;99.90
29185;DHT22;16233;47.964;-3.842;2022-11-15T04:33:25;13.00;99.90
29185;DHT22;16233;47.964;-3.842;2022-11-15T04:35:26;13.10;99.90
29185;DHT22;16233;47.964;-3.842;2022-11-15T04:37:27;13.10;99.90
29185;DHT22;16233;47.964;-3.842;2022-11-15T04:39:28;13.10;99.90
29185;DHT22;16233;47.964;-3.842;2022-11-15T04:41:31;13.20;99.90
29185;DHT22;16233;47.964;-3.842;2022-11-15T04:43:32;13.20;99.90
29185;DHT22;16233;47.964;-3.842;2022-11-15T04:45:33;13.20;99.90
29185;DHT22;16233;47.964;-3.842;2022-11-15T04:47:34;13.20;99.90
29185;DHT22;16233;47.964;-3.842;2022-11-15T04:49:35;13.20;99.90
29185;DHT22;16233;47.964;-3.842;2022-11-15T04:51:36;13.20;99.90
29185;DHT22;16233;47.964;-3.842;2022-11-15T04:53:37;13.30;99.90
29185;DHT22;16233;47.964;-3.842;2022-11-15T04:55:38;13.30;99.90
29185;DHT22;16233;47.964;-3.842;2022-11-15T04:57:40;13.30;99.90
29185;DHT22;16233;47.964;-3.842;2022-11-15T04:59:41;13.30;99.90
29185;DHT22;16233;47.964;-3.842;2022-11-15T05:01:42;13.30;99.90
29185;DHT22;16233;47.964;-3.842;2022-11-15T05:03:44;13.30;99.90
29185;DHT22;16233;47.964;-3.842;2022-11-15T05:05:45;13.30;99.90
29185;DHT22;16233;47.964;-3.842;2022-11-15T05:07:46;13.30;99.90
29185;DHT22;16233;47.964;-3.842;2022-11-15T05:09:47;13.30;99.90
29185;DHT22;16233;47.964;-3.842;2022-11-15T05:11:48;13.30;99.90
29185;DHT22;16233;47.964;-3.842;2022-11-15T05:13:51;13.30;99.90
29185;DHT22;16233;47.964;-3.842;2022-11-15T05:15:52;13.40;99.90
29185;DHT22;16233;47.964;-3.842;2022-11-15T05:17:57;13.30;99.90
29185;DHT22;16233;47.964;-3.842;2022-11-15T05:19:59;13.40;99.90
29185;DHT22;16233;47.964;-3.842;2022-11-15T05:22:00;13.40;99.90
29185;DHT22;16233;47.964;-3.842;2022-11-15T05:24:02;13.40;99.90
29185;DHT22;16233;47.964;-3.842;2022-11-15T05:26:04;13.40;99.90
29185;DHT22;16233;47.964;-3.842;2022-11-15T05:28:05;13.40;99.90
29185;DHT22;16233;47.964;-3.842;2022-11-15T05:30:09;13.40;99.90
29185;DHT22;16233;47.964;-3.842;2022-11-15T05:32:11;13.40;99.90
29185;DHT22;16233;47.964;-3.842;2022-11-15T05:34:14;13.40;99.90
29185;DHT22;16233;47.964;-3.842;2022-11-15T05:36:20;13.50;99.90
29185;DHT22;16233;47.964;-3.842;2022-11-15T05:38:23;13.40;99.90
29185;DHT22;16233;47.964;-3.842;2022-11-15T05:40:24;13.50;99.90
29185;DHT22;16233;47.964;-3.842;2022-11-15T05:42:26;13.50;99.90
29185;DHT22;16233;47.964;-3.842;2022-11-15T05:44:28;13.40;99.90
29185;DHT22;16233;47.964;-3.842;2022-11-15T05:46:30;13.40;99.90
29185;DHT22;16233;47.964;-3.842;2022-11-15T05:48:31;13.50;99.90
29185;DHT22;16233;47.964;-3.842;2022-11-15T05:50:33;13.40;99.90
29185;DHT22;16233;47.964;-3.842;2022-11-15T05:52:36;13.40;99.90
29185;DHT22;16233;47.964;-3.842;2022-11-15T05:54:41;13.50;99.90
29185;DHT22;16233;47.964;-3.842;2022-11-15T05:56:42;13.50;99.90
29185;DHT22;16233;47.964;-3.842;2022-11-15T05:58:44;13.40;99.90
29185;DHT22;16233;47.964;-3.842;2022-11-15T06:00:45;13.50;99.90
29185;DHT22;16233;47.964;-3.842;2022-11-15T06:02:48;13.50;99.90
29185;DHT22;16233;47.964;-3.842;2022-11-15T06:04:49;13.50;99.90
29185;DHT22;16233;47.964;-3.842;2022-11-15T06:06:50;13.50;99.90
29185;DHT22;16233;47.964;-3.842;2022-11-15T06:08:51;13.60;99.90
29185;DHT22;16233;47.964;-3.842;2022-11-15T06:10:52;13.60;99.90
29185;DHT22;16233;47.964;-3.842;2022-11-15T06:12:57;13.60;99.90
29185;DHT22;16233;47.964;-3.842;2022-11-15T06:14:58;13.50;99.90
29185;DHT22;16233;47.964;-3.842;2022-11-15T06:16:59;13.60;99.90
29185;DHT22;16233;47.964;-3.842;2022-11-15T06:19:02;13.60;99.90
29185;DHT22;16233;47.964;-3.842;2022-11-15T06:21:03;13.60;99.90
29185;DHT22;16233;47.964;-3.842;2022-11-15T06:23:05;13.60;99.90
29185;DHT22;16233;47.964;-3.842;2022-11-15T06:25:06;13.60;99.90
29185;DHT22;16233;47.964;-3.842;2022-11-15T06:27:07;13.60;99.90
29185;DHT22;16233;47.964;-3.842;2022-11-15T06:29:08;13.60;99.90
29185;DHT22;16233;47.964;-3.842;2022-11-15T06:31:10;13.60;99.90
29185;DHT22;16233;47.964;-3.842;2022-11-15T06:33:11;13.70;99.90
29185;DHT22;16233;47.964;-3.842;2022-11-15T06:35:14;13.70;99.90
29185;DHT22;16233;47.964;-3.842;2022-11-15T06:37:15;13.70;99.90
29185;DHT22;16233;47.964;-3.842;2022-11-15T06:39:16;13.70;99.90
29185;DHT22;16233;47.964;-3.842;2022-11-15T06:41:17;13.70;99.90
29185;DHT22;16233;47.964;-3.842;2022-11-15T06:43:18;13.60;99.90
29185;DHT22;16233;47.964;-3.842;2022-11-15T06:45:20;13.50;99.90
29185;DHT22;16233;47.964;-3.842;2022-11-15T06:47:21;13.50;99.90
29185;DHT22;16233;47.964;-3.842;2022-11-15T06:49:22;13.30;99.90
29185;DHT22;16233;47.964;-3.842;2022-11-15T06:51:25;13.20;99.90
29185;DHT22;16233;47.964;-3.842;2022-11-15T06:53:27;13.00;99.90
29185;DHT22;16233;47.964;-3.842;2022-11-15T06:55:28;12.90;99.90
29185;DHT22;16233;47.964;-3.842;2022-11-15T06:57:29;12.80;99.90
29185;DHT22;16233;47.964;-3.842;2022-11-15T06:59:30;12.70;99.90
29185;DHT22;16233;47.964;-3.842;2022-11-15T07:01:31;12.60;99.90
29185;DHT22;16233;47.964;-3.842;2022-11-15T07:03:33;12.50;99.90
29185;DHT22;16233;47.964;-3.842;2022-11-15T07:05:35;12.50;99.90
29185;DHT22;16233;47.964;-3.842;2022-11-15T07:07:37;12.50;99.90
29185;DHT22;16233;47.964;-3.842;2022-11-15T07:09:38;12.40;99.90
29185;DHT22;16233;47.964;-3.842;2022-11-15T07:11:40;12.30;99.90
29185;DHT22;16233;47.964;-3.842;2022-11-15T07:13:41;12.30;99.90
29185;DHT22;16233;47.964;-3.842;2022-11-15T07:15:42;12.30;99.90
29185;DHT22;16233;47.964;-3.842;2022-11-15T07:17:43;12.20;99.90
29185;DHT22;16233;47.964;-3.842;2022-11-15T07:19:44;12.20;99.90
29185;DHT22;16233;47.964;-3.842;2022-11-15T07:21:45;12.10;99.90
29185;DHT22;16233;47.964;-3.842;2022-11-15T07:23:47;12.10;99.90
29185;DHT22;16233;47.964;-3.842;2022-11-15T07:25:48;12.00;99.90
29185;DHT22;16233;47.964;-3.842;2022-11-15T07:27:54;12.00;99.90
29185;DHT22;16233;47.964;-3.842;2022-11-15T07:29:55;12.00;99.90
29185;DHT22;16233;47.964;-3.842;2022-11-15T07:34:00;12.10;99.90
29185;DHT22;16233;47.964;-3.842;2022-11-15T07:36:01;12.00;99.90
29185;DHT22;16233;47.964;-3.842;2022-11-15T07:38:03;12.00;99.90
29185;DHT22;16233;47.964;-3.842;2022-11-15T07:40:07;12.00;99.90
29185;DHT22;16233;47.964;-3.842;2022-11-15T07:42:08;12.00;99.90
29185;DHT22;16233;47.964;-3.842;2022-11-15T07:44:09;12.00;99.90
29185;DHT22;16233;47.964;-3.842;2022-11-15T07:46:10;12.00;99.90
29185;DHT22;16233;47.964;-3.842;2022-11-15T07:48:11;12.00;99.90
29185;DHT22;16233;47.964;-3.842;2022-11-15T07:50:12;12.00;99.90
29185;DHT22;16233;47.964;-3.842;2022-11-15T07:52:13;12.10;99.90
29185;DHT22;16233;47.964;-3.842;2022-11-15T07:54:14;12.00;99.90
29185;DHT22;16233;47.964;-3.842;2022-11-15T07:56:17;12.00;99.90
29185;DHT22;16233;47.964;-3.842;2022-11-15T07:58:18;12.00;99.90
29185;DHT22;16233;47.964;-3.842;2022-11-15T08:00:19;12.10;99.90
29185;DHT22;16233;47.964;-3.842;2022-11-15T08:02:20;12.10;99.90
29185;DHT22;16233;47.964;-3.842;2022-11-15T08:04:22;12.00;99.90
29185;DHT22;16233;47.964;-3.842;2022-11-15T08:06:23;12.00;99.90
29185;DHT22;16233;47.964;-3.842;2022-11-15T08:08:24;12.00;99.90
29185;DHT22;16233;47.964;-3.842;2022-11-15T08:10:25;12.00;99.90
29185;DHT22;16233;47.964;-3.842;2022-11-15T08:12:28;12.00;99.90
29185;DHT22;16233;47.964;-3.842;2022-11-15T08:14:29;12.00;99.90
29185;DHT22;16233;47.964;-3.842;2022-11-15T08:16:30;12.00;99.90
29185;DHT22;16233;47.964;-3.842;2022-11-15T08:18:31;11.90;99.90
29185;DHT22;16233;47.964;-3.842;2022-11-15T08:20:32;12.00;99.90
29185;DHT22;16233;47.964;-3.842;2022-11-15T08:22:33;12.00;99.90
29185;DHT22;16233;47.964;-3.842;2022-11-15T08:24:34;12.00;99.90
29185;DHT22;16233;47.964;-3.842;2022-11-15T08:26:35;12.00;99.90
29185;DHT22;16233;47.964;-3.842;2022-11-15T08:28:38;12.10;99.90
29185;DHT22;16233;47.964;-3.842;2022-11-15T08:30:42;12.10;99.90
29185;DHT22;16233;47.964;-3.842;2022-11-15T08:32:43;12.10;99.90
29185;DHT22;16233;47.964;-3.842;2022-11-15T08:34:44;12.10;99.90
29185;DHT22;16233;47.964;-3.842;2022-11-15T08:36:45;12.20;99.90
29185;DHT22;16233;47.964;-3.842;2022-11-15T08:38:46;12.20;99.90
29185;DHT22;16233;47.964;-3.842;2022-11-15T08:40:47;12.20;99.90
29185;DHT22;16233;47.964;-3.842;2022-11-15T08:42:48;12.10;99.90
29185;DHT22;16233;47.964;-3.842;2022-11-15T08:44:51;12.20;99.90
29185;DHT22;16233;47.964;-3.842;2022-11-15T08:46:52;12.10;99.90
29185;DHT22;16233;47.964;-3.842;2022-11-15T08:48:53;12.20;99.90
29185;DHT22;16233;47.964;-3.842;2022-11-15T08:50:54;12.20;99.90
29185;DHT22;16233;47.964;-3.842;2022-11-15T08:52:55;12.30;99.90
29185;DHT22;16233;47.964;-3.842;2022-11-15T08:54:56;12.30;99.90
29185;DHT22;16233;47.964;-3.842;2022-11-15T08:56:57;12.20;99.90
29185;DHT22;16233;47.964;-3.842;2022-11-15T08:58:58;12.30;99.90
29185;DHT22;16233;47.964;-3.842;2022-11-15T09:01:01;12.30;99.90
29185;DHT22;16233;47.964;-3.842;2022-11-15T09:03:04;12.30;99.90
29185;DHT22;16233;47.964;-3.842;2022-11-15T09:05:06;12.30;99.90
29185;DHT22;16233;47.964;-3.842;2022-11-15T09:07:07;12.40;99.90
29185;DHT22;16233;47.964;-3.842;2022-11-15T09:09:08;12.40;99.90
29185;DHT22;16233;47.964;-3.842;2022-11-15T09:11:10;12.40;99.90
29185;DHT22;16233;47.964;-3.842;2022-11-15T09:13:11;12.50;99.90
29185;DHT22;16233;47.964;-3.842;2022-11-15T09:15:12;12.50;99.90
29185;DHT22;16233;47.964;-3.842;2022-11-15T09:17:14;12.60;99.90
29185;DHT22;16233;47.964;-3.842;2022-11-15T09:19:15;12.60;99.90
29185;DHT22;16233;47.964;-3.842;2022-11-15T09:21:16;12.60;99.90
29185;DHT22;16233;47.964;-3.842;2022-11-15T09:23:17;12.60;99.90
29185;DHT22;16233;47.964;-3.842;2022-11-15T09:25:18;12.70;99.90
29185;DHT22;16233;47.964;-3.842;2022-11-15T09:27:19;12.90;99.90
29185;DHT22;16233;47.964;-3.842;2022-11-15T09:29:23;13.00;99.90
29185;DHT22;16233;47.964;-3.842;2022-11-15T09:31:24;13.00;99.90
29185;DHT22;16233;47.964;-3.842;2022-11-15T09:33:27;13.00;99.90
29185;DHT22;16233;47.964;-3.842;2022-11-15T09:35:28;13.00;99.90
29185;DHT22;16233;47.964;-3.842;2022-11-15T09:37:31;12.80;99.90
29185;DHT22;16233;47.964;-3.842;2022-11-15T09:39:32;12.80;99.90
29185;DHT22;16233;47.964;-3.842;2022-11-15T09:42:02;12.80;99.90
29185;DHT22;16233;47.964;-3.842;2022-11-15T09:44:17;12.80;99.90
29185;DHT22;16233;47.964;-3.842;2022-11-15T09:46:30;12.70;99.90
29185;DHT22;16233;47.964;-3.842;2022-11-15T09:48:48;12.80;99.90
29185;DHT22;16233;47.964;-3.842;2022-11-15T09:50:50;12.80;99.90
29185;DHT22;16233;47.964;-3.842;2022-11-15T09:52:51;12.70;99.90
29185;DHT22;16233;47.964;-3.842;2022-11-15T09:54:53;12.80;99.90
29185;DHT22;16233;47.964;-3.842;2022-11-15T09:56:56;12.80;99.90
29185;DHT22;16233;47.964;-3.842;2022-11-15T09:59:14;12.90;99.90
29185;DHT22;16233;47.964;-3.842;2022-11-15T10:01:19;12.90;99.90
29185;DHT22;16233;47.964;-3.842;2022-11-15T10:03:28;12.90;99.90
29185;DHT22;16233;47.964;-3.842;2022-11-15T10:05:32;12.90;99.90
29185;DHT22;16233;47.964;-3.842;2022-11-15T10:07:44;13.00;99.90
29185;DHT22;16233;47.964;-3.842;2022-11-15T10:09:51;13.00;99.90
29185;DHT22;16233;47.964;-3.842;2022-11-15T10:11:53;13.00;99.90
29185;DHT22;16233;47.964;-3.842;2022-11-15T10:13:57;13.10;99.90
29185;DHT22;16233;47.964;-3.842;2022-11-15T10:16:07;13.30;99.90
29185;DHT22;16233;47.964;-3.842;2022-11-15T10:18:17;13.30;99.90
29185;DHT22;16233;47.964;-3.842;2022-11-15T10:20:22;13.40;99.90
29185;DHT22;16233;47.964;-3.842;2022-11-15T10:22:31;13.50;99.90
29185;DHT22;16233;47.964;-3.842;2022-11-15T10:24:44;13.50;99.90
29185;DHT22;16233;47.964;-3.842;2022-11-15T10:26:47;13.40;99.90
29185;DHT22;16233;47.964;-3.842;2022-11-15T10:28:48;13.30;99.90
29185;DHT22;16233;47.964;-3.842;2022-11-15T10:30:52;13.20;99.90
29185;DHT22;16233;47.964;-3.842;2022-11-15T10:32:53;13.10;99.90
29185;DHT22;16233;47.964;-3.842;2022-11-15T10:34:54;13.00;99.90
29185;DHT22;16233;47.964;-3.842;2022-11-15T10:36:57;12.90;99.90
29185;DHT22;16233;47.964;-3.842;2022-11-15T10:38:59;12.80;99.90
29185;DHT22;16233;47.964;-3.842;2022-11-15T10:41:07;12.70;99.90
29185;DHT22;16233;47.964;-3.842;2022-11-15T10:43:15;12.70;99.90
29185;DHT22;16233;47.964;-3.842;2022-11-15T10:45:27;12.50;99.90
29185;DHT22;16233;47.964;-3.842;2022-11-15T10:47:29;12.40;99.90
29185;DHT22;16233;47.964;-3.842;2022-11-15T10:49:32;12.40;99.90
29185;DHT22;16233;47.964;-3.842;2022-11-15T10:51:41;12.30;99.90
29185;DHT22;16233;47.964;-3.842;2022-11-15T10:53:44;12.30;99.90
29185;DHT22;16233;47.964;-3.842;2022-11-15T10:55:50;12.40;99.90
29185;DHT22;16233;47.964;-3.842;2022-11-15T10:57:53;12.50;99.90
29185;DHT22;16233;47.964;-3.842;2022-11-15T10:59:56;12.70;99.90
29185;DHT22;16233;47.964;-3.842;2022-11-15T11:01:58;12.80;99.90
29185;DHT22;16233;47.964;-3.842;2022-11-15T11:04:00;12.80;99.90
29185;DHT22;16233;47.964;-3.842;2022-11-15T11:06:06;12.90;99.90
29185;DHT22;16233;47.964;-3.842;2022-11-15T11:08:22;12.90;99.90
29185;DHT22;16233;47.964;-3.842;2022-11-15T11:10:23;12.90;99.90
29185;DHT22;16233;47.964;-3.842;2022-11-15T11:12:30;13.00;99.90
29185;DHT22;16233;47.964;-3.842;2022-11-15T11:14:33;13.10;99.90
29185;DHT22;16233;47.964;-3.842;2022-11-15T11:16:42;13.10;99.90
29185;DHT22;16233;47.964;-3.842;2022-11-15T11:18:49;13.20;99.90
29185;DHT22;16233;47.964;-3.842;2022-11-15T11:20:54;13.20;99.90
29185;DHT22;16233;47.964;-3.842;2022-11-15T11:23:04;13.30;99.90
29185;DHT22;16233;47.964;-3.842;2022-11-15T11:25:21;13.50;99.90
29185;DHT22;16233;47.964;-3.842;2022-11-15T11:27:34;13.60;99.90
29185;DHT22;16233;47.964;-3.842;2022-11-15T11:29:54;13.60;99.90
29185;DHT22;16233;47.964;-3.842;2022-11-15T11:31:58;13.70;99.90
29185;DHT22;16233;47.964;-3.842;2022-11-15T11:34:08;13.60;99.90
29185;DHT22;16233;47.964;-3.842;2022-11-15T11:36:21;13.60;99.90
29185;DHT22;16233;47.964;-3.842;2022-11-15T11:38:47;13.70;99.90
29185;DHT22;16233;47.964;-3.842;2022-11-15T11:41:04;13.70;99.90
29185;DHT22;16233;47.964;-3.842;2022-11-15T11:43:17;13.70;99.90
29185;DHT22;16233;47.964;-3.842;2022-11-15T11:45:40;13.60;99.90
29185;DHT22;16233;47.964;-3.842;2022-11-15T11:47:47;13.60;99.90
29185;DHT22;16233;47.964;-3.842;2022-11-15T11:49:54;13.70;99.90
29185;DHT22;16233;47.964;-3.842;2022-11-15T11:52:02;13.70;99.90
29185;DHT22;16233;47.964;-3.842;2022-11-15T11:54:11;13.60;99.90
29185;DHT22;16233;47.964;-3.842;2022-11-15T11:56:19;13.60;99.90
29185;DHT22;16233;47.964;-3.842;2022-11-15T11:58:28;13.60;99.90
29185;DHT22;16233;47.964;-3.842;2022-11-15T12:00:40;13.40;99.90
29185;DHT22;16233;47.964;-3.842;2022-11-15T12:02:45;13.20;99.90
29185;DHT22;16233;47.964;-3.842;2022-11-15T12:04:51;13.20;99.90
29185;DHT22;16233;47.964;-3.842;2022-11-15T12:06:56;13.10;99.90
29185;DHT22;16233;47.964;-3.842;2022-11-15T12:09:04;12.90;99.90
29185;DHT22;16233;47.964;-3.842;2022-11-15T12:11:12;12.80;99.90
29185;DHT22;16233;47.964;-3.842;2022-11-15T12:13:18;12.80;99.90
29185;DHT22;16233;47.964;-3.842;2022-11-15T12:15:24;12.70;99.90
29185;DHT22;16233;47.964;-3.842;2022-11-15T12:17:28;12.60;99.90
29185;DHT22;16233;47.964;-3.842;2022-11-15T12:19:30;12.50;99.90
29185;DHT22;16233;47.964;-3.842;2022-11-15T12:21:35;12.40;99.90
29185;DHT22;16233;47.964;-3.842;2022-11-15T12:23:41;12.30;99.90
29185;DHT22;16233;47.964;-3.842;2022-11-15T12:25:47;12.50;99.90
29185;DHT22;16233;47.964;-3.842;2022-11-15T12:27:54;12.60;99.90
29185;DHT22;16233;47.964;-3.842;2022-11-15T12:29:59;12.60;99.90
29185;DHT22;16233;47.964;-3.842;2022-11-15T12:32:03;12.50;99.90
29185;DHT22;16233;47.964;-3.842;2022-11-15T12:34:15;12.40;99.90
29185;DHT22;16233;47.964;-3.842;2022-11-15T12:36:38;12.30;99.90
29185;DHT22;16233;47.964;-3.842;2022-11-15T12:41:23;12.30;99.90
29185;DHT22;16233;47.964;-3.842;2022-11-15T12:43:38;12.60;99.90
29185;DHT22;16233;47.964;-3.842;2022-11-15T12:45:41;12.80;99.90
29185;DHT22;16233;47.964;-3.842;2022-11-15T12:47:44;12.90;99.90
29185;DHT22;16233;47.964;-3.842;2022-11-15T12:49:46;13.10;99.90
29185;DHT22;16233;47.964;-3.842;2022-11-15T12:52:06;13.30;99.90
29185;DHT22;16233;47.964;-3.842;2022-11-15T12:56:42;13.70;99.90
29185;DHT22;16233;47.964;-3.842;2022-11-15T12:58:44;13.80;99.90
29185;DHT22;16233;47.964;-3.842;2022-11-15T13:00:45;13.80;99.90
29185;DHT22;16233;47.964;-3.842;2022-11-15T13:02:48;14.00;99.90